Time;durP1;ratioP1;P1;durP2;ratioP2;P2;SDS_P1;SDS_P2;PMS_P1;PMS_P2;Temp;Humidity;BMP_temperature;BMP_pressure;BME280_temperature;BME280_humidity;BME280_pressure;Samples;Min_cycle;Max_cycle;Signal;HPM_P1;HPM_P2
2021/08/02 00:00:46;;;;;;;32.20;29.40;;;;;;;14.90;100.00;98203.53;2088704;28;20234;-76
2021/08/02 00:01:49;;;;;;;32.40;29.90;;;;;;;14.91;100.00;98207.00;2088793;28;20264;-76
2021/08/02 00:02:56;;;;;;;31.48;28.67;;;;;;;14.89;100.00;98203.88;2088861;28;20222;-76
2021/08/02 00:04:02;;;;;;;30.75;28.35;;;;;;;14.88;100.00;98199.63;2088752;28;22502;-76
2021/08/02 00:05:06;;;;;;;33.42;30.45;;;;;;;14.88;100.00;98205.00;2089616;28;20681;-76
2021/08/02 00:06:09;;;;;;;30.38;27.92;;;;;;;14.93;100.00;98207.41;2089195;28;20226;-76
2021/08/02 00:07:12;;;;;;;29.75;27.35;;;;;;;14.88;100.00;98197.72;2089660;28;20321;-76
2021/08/02 00:08:20;;;;;;;30.30;28.00;;;;;;;14.90;100.00;98210.81;2089610;28;20693;-76
2021/08/02 00:09:23;;;;;;;30.30;27.90;;;;;;;14.91;100.00;98215.81;2089712;28;20211;-77
2021/08/02 00:10:26;;;;;;;29.20;26.90;;;;;;;14.91;100.00;98220.41;2089257;28;20222;-77
2021/08/02 00:11:32;;;;;;;30.35;27.95;;;;;;;14.90;100.00;98208.91;2088580;28;20408;-76
2021/08/02 00:12:37;;;;;;;31.20;28.70;;;;;;;14.88;100.00;98216.53;2089012;28;20226;-77
2021/08/02 00:13:38;;;;;;;30.52;28.02;;;;;;;14.88;100.00;98221.13;2089064;28;20264;-75
2021/08/02 00:14:41;;;;;;;30.27;27.92;;;;;;;14.90;100.00;98213.50;2089466;28;20236;-76
2021/08/02 00:15:44;;;;;;;30.45;28.05;;;;;;;14.90;100.00;98208.13;2089527;28;20606;-76
2021/08/02 00:16:46;;;;;;;30.95;28.55;;;;;;;14.87;100.00;98209.59;2089601;28;20226;-77
2021/08/02 00:17:47;;;;;;;31.90;29.60;;;;;;;14.87;100.00;98217.66;2088707;28;20540;-77
2021/08/02 00:18:49;;;;;;;30.90;28.52;;;;;;;14.87;100.00;98222.25;2088870;28;20632;-76
2021/08/02 00:19:50;;;;;;;29.83;27.40;;;;;;;14.84;100.00;98214.84;2089525;28;20230;-76
2021/08/02 00:20:54;;;;;;;29.27;27.17;;;;;;;14.88;100.00;98205.00;2089445;28;20232;-76
2021/08/02 00:21:54;;;;;;;29.30;27.00;;;;;;;14.87;100.00;98216.88;2089091;28;20223;-77
2021/08/02 00:22:57;;;;;;;29.47;26.93;;;;;;;14.86;100.00;98212.63;2089692;28;20226;-76
2021/08/02 00:23:59;;;;;;;28.73;26.52;;;;;;;14.85;100.00;98216.41;2089537;28;20553;-77
2021/08/02 00:25:00;;;;;;;28.83;26.63;;;;;;;14.83;100.00;98224.81;2089574;28;20278;-76
2021/08/02 00:26:02;;;;;;;26.83;24.67;;;;;;;14.80;100.00;98214.78;2089385;28;20227;-76
2021/08/02 00:27:04;;;;;;;28.25;26.15;;;;;;;14.85;100.00;98222.56;2088717;28;20317;-76
2021/08/02 00:28:05;;;;;;;28.10;25.92;;;;;;;14.85;100.00;98216.41;2080288;28;20246;-76
2021/08/02 00:29:07;;;;;;;27.00;24.90;;;;;;;14.87;100.00;98219.56;2088768;28;20222;-76
2021/08/02 00:30:08;;;;;;;26.50;24.23;;;;;;;14.88;100.00;98216.53;2082597;28;20258;-76
2021/08/02 00:31:10;;;;;;;25.77;23.58;;;;;;;14.88;100.00;98223.81;2080471;28;20227;-76
2021/08/02 00:32:13;;;;;;;26.13;24.13;;;;;;;14.87;100.00;98220.34;2072300;28;20224;-76
2021/08/02 00:33:14;;;;;;;27.40;25.35;;;;;;;14.92;100.00;98221.97;2080508;28;20301;-76
2021/08/02 00:34:15;;;;;;;27.13;24.92;;;;;;;14.85;100.00;98216.41;2080230;28;20220;-77
2021/08/02 00:35:17;;;;;;;27.60;25.40;;;;;;;14.86;100.00;98213.41;2081131;28;20223;-78
2021/08/02 00:36:21;;;;;;;27.33;25.13;;;;;;;14.84;100.00;98217.53;2081288;28;20219;-78
2021/08/02 00:37:32;;;;;;;28.80;26.50;;;;;;;14.83;100.00;98218.66;2086848;28;20630;-78
2021/08/02 00:38:38;;;;;;;28.25;26.25;;;;;;;14.80;100.00;98227.44;2089388;28;20223;-79
2021/08/02 00:39:44;;;;;;;25.13;23.13;;;;;;;14.78;100.00;98227.78;2089082;28;20242;-77
2021/08/02 00:41:17;;;;;;;25.35;23.35;;;;;;;14.77;100.00;98241.53;2089443;28;20310;-79
2021/08/02 00:42:54;;;;;;;26.90;24.48;;;;;;;14.77;100.00;98236.97;2047248;28;20245;-78
2021/08/02 00:44:27;;;;;;;28.13;25.92;;;;;;;14.78;100.00;98249.25;2066527;28;20226;-79
2021/08/02 00:45:31;;;;;;;28.35;25.75;;;;;;;14.78;100.00;98248.47;2088300;28;20228;-78
2021/08/02 00:46:36;;;;;;;26.60;24.45;;;;;;;14.73;100.00;98252.19;2089487;28;20223;-79
2021/08/02 00:47:41;;;;;;;27.67;25.27;;;;;;;14.71;100.00;98251.75;2081912;28;20219;-77
2021/08/02 00:48:47;;;;;;;27.75;25.45;;;;;;;14.67;100.00;98254.31;2072660;28;20247;-79
2021/08/02 00:49:52;;;;;;;29.38;26.98;;;;;;;14.66;100.00;98252.75;2072680;28;20220;-78
2021/08/02 00:50:54;;;;;;;28.98;26.67;;;;;;;14.62;100.00;98254.59;2074112;28;20234;-77
2021/08/02 00:51:57;;;;;;;29.63;27.10;;;;;;;14.62;100.00;98251.91;2080385;28;20227;-78
2021/08/02 00:53:02;;;;;;;30.73;27.88;;;;;;;14.60;100.00;98248.78;2072354;28;20227;-77
2021/08/02 00:54:05;;;;;;;29.00;26.67;;;;;;;14.54;100.00;98250.13;2072473;28;20347;-78
2021/08/02 00:55:08;;;;;;;29.60;27.20;;;;;;;14.58;100.00;98251.00;2080214;28;20635;-77
2021/08/02 00:56:10;;;;;;;30.60;28.17;;;;;;;14.54;100.00;98258.19;2087124;28;20225;-77
2021/08/02 00:57:12;;;;;;;29.40;26.77;;;;;;;14.50;100.00;98257.28;2088400;28;20326;-78
2021/08/02 00:58:16;;;;;;;29.45;27.05;;;;;;;14.48;100.00;98256.09;2088272;28;20594;-77
2021/08/02 00:59:20;;;;;;;29.70;27.30;;;;;;;14.42;100.00;98255.50;2080833;28;20605;-76
2021/08/02 01:00:23;;;;;;;31.15;28.65;;;;;;;14.40;100.00;98265.81;2088074;28;20227;-76
2021/08/02 01:01:29;;;;;;;29.13;26.67;;;;;;;14.38;100.00;98257.31;2088437;28;20739;-76
2021/08/02 01:02:36;;;;;;;29.25;26.85;;;;;;;14.36;100.00;98263.03;2080645;28;20595;-76
2021/08/02 01:03:41;;;;;;;30.52;28.10;;;;;;;14.34;100.00;98264.50;2080314;28;20266;-76
2021/08/02 01:04:44;;;;;;;29.05;26.55;;;;;;;14.35;100.00;98274.09;2088395;28;20249;-76
2021/08/02 01:05:47;;;;;;;30.85;28.15;;;;;;;14.30;100.00;98261.69;2089161;28;20677;-76
2021/08/02 01:06:51;;;;;;;32.97;30.20;;;;;;;14.25;100.00;98259.28;2088341;28;20219;-76
2021/08/02 01:07:57;;;;;;;35.42;32.40;;;;;;;14.24;100.00;98264.94;2081951;28;20223;-74
2021/08/02 01:09:01;;;;;;;34.03;31.17;;;;;;;14.27;100.00;98261.59;2080166;28;20280;-76
2021/08/02 01:10:03;;;;;;;34.05;30.83;;;;;;;14.25;100.00;98266.53;2072254;28;20228;-76
2021/08/02 01:11:07;;;;;;;36.17;33.17;;;;;;;14.26;100.00;98268.88;2078568;28;20220;-76
2021/08/02 01:12:11;;;;;;;36.75;33.95;;;;;;;14.20;100.00;98270.22;2081656;28;20227;-75
2021/08/02 01:13:13;;;;;;;36.42;33.40;;;;;;;14.21;100.00;98260.28;2080084;28;20234;-76
2021/08/02 01:14:18;;;;;;;36.08;32.83;;;;;;;14.18;100.00;98258.28;2072150;28;20286;-76
2021/08/02 01:15:21;;;;;;;36.95;33.35;;;;;;;14.18;100.00;98266.31;2080252;28;20310;-76
2021/08/02 01:16:25;;;;;;;34.20;31.40;;;;;;;14.16;100.00;98263.97;2086292;28;20219;-76
2021/08/02 01:17:31;;;;;;;34.90;32.00;;;;;;;14.19;100.00;98265.19;2080705;28;20250;-76
2021/08/02 01:18:39;;;;;;;33.72;30.38;;;;;;;14.12;100.00;98261.19;2080529;28;20227;-75
2021/08/02 01:19:43;;;;;;;35.08;31.92;;;;;;;14.11;100.00;98264.22;2087997;28;20229;-76
2021/08/02 01:20:47;;;;;;;35.97;32.97;;;;;;;14.10;100.00;98271.47;2088178;28;20218;-76
2021/08/02 01:21:48;;;;;;;36.80;33.83;;;;;;;14.07;100.00;98277.53;2088445;28;20226;-76
2021/08/02 01:22:51;;;;;;;37.85;34.85;;;;;;;14.06;100.00;98270.56;2089102;28;20221;-76
2021/08/02 01:23:52;;;;;;;34.78;31.98;;;;;;;14.06;100.00;98275.16;2087745;28;20226;-76
2021/08/02 01:24:56;;;;;;;35.38;31.80;;;;;;;14.06;100.00;98273.25;2080508;28;20254;-75
2021/08/02 01:26:30;;;;;;;35.80;32.28;;;;;;;14.03;100.00;98276.63;2088222;28;20301;-76
2021/08/02 01:27:46;;;;;;;37.75;34.45;;;;;;;14.01;100.00;98284.22;2080953;28;20224;-76
2021/08/02 01:29:25;;;;;;;37.55;34.38;;;;;;;14.01;100.00;98289.59;2080161;28;20306;-76
2021/08/02 01:30:29;;;;;;;36.72;33.72;;;;;;;14.00;100.00;98292.63;2078446;28;20226;-77
2021/08/02 01:31:33;;;;;;;35.25;32.25;;;;;;;13.98;100.00;98279.53;2080158;28;20277;-76
2021/08/02 01:32:35;;;;;;;33.60;30.77;;;;;;;14.02;100.00;98282.31;2080029;28;20714;-75
2021/08/02 01:33:39;;;;;;;35.40;32.22;;;;;;;13.96;100.00;98273.72;2086120;28;20258;-75
2021/08/02 01:34:48;;;;;;;35.28;32.38;;;;;;;13.98;100.00;98276.06;2088346;28;20305;-76
2021/08/02 01:35:50;;;;;;;36.88;33.50;;;;;;;13.96;100.00;98279.09;2088071;28;20249;-76
2021/08/02 01:36:51;;;;;;;37.77;34.33;;;;;;;13.95;100.00;98288.25;2079495;28;20234;-76
2021/08/02 01:37:55;;;;;;;36.03;33.13;;;;;;;13.93;100.00;98295.06;2087676;28;20222;-75
2021/08/02 01:39:01;;;;;;;36.95;33.67;;;;;;;13.89;100.00;98278.06;2088212;28;20646;-76
2021/08/02 01:40:06;;;;;;;36.65;33.55;;;;;;;13.91;100.00;98286.59;2088226;28;20229;-76
2021/08/02 01:41:12;;;;;;;34.92;31.92;;;;;;;13.86;100.00;98285.69;2080133;28;20299;-75
2021/08/02 01:42:14;;;;;;;33.78;30.70;;;;;;;13.82;100.00;98279.44;2088185;28;20305;-76
2021/08/02 01:43:16;;;;;;;34.08;31.02;;;;;;;13.84;100.00;98281.78;2088242;28;20294;-76
2021/08/02 01:44:19;;;;;;;34.65;31.55;;;;;;;13.84;100.00;98287.16;2088154;28;20670;-75
2021/08/02 01:45:20;;;;;;;34.40;31.23;;;;;;;13.83;100.00;98288.28;2087962;28;20665;-76
2021/08/02 01:46:29;;;;;;;35.00;32.00;;;;;;;13.82;100.00;98284.03;2079545;28;20227;-75
2021/08/02 01:47:37;;;;;;;33.45;30.75;;;;;;;13.86;100.00;98280.31;2080057;28;20219;-75
2021/08/02 01:48:43;;;;;;;33.97;31.27;;;;;;;13.85;100.00;98288.72;2083341;28;20219;-75
2021/08/02 01:49:49;;;;;;;34.92;31.83;;;;;;;13.83;100.00;98281.00;2079855;28;20235;-75
2021/08/02 01:50:56;;;;;;;34.08;31.15;;;;;;;13.82;100.00;98290.16;2085692;28;20238;-75
2021/08/02 01:52:00;;;;;;;34.55;31.60;;;;;;;13.78;100.00;98283.13;2088229;28;20559;-76
2021/08/02 01:53:14;;;;;;;33.38;30.38;;;;;;;13.80;100.00;98299.66;2088942;28;20225;-75
2021/08/02 01:54:25;;;;;;;31.60;29.00;;;;;;;13.80;100.00;98287.03;2087737;28;20305;-76
2021/08/02 01:55:28;;;;;;;33.40;30.70;;;;;;;13.78;100.00;98293.84;2074770;28;20232;-76
2021/08/02 01:56:34;;;;;;;33.70;30.90;;;;;;;13.77;100.00;98293.06;2080871;28;20223;-75
2021/08/02 01:57:42;;;;;;;32.40;29.67;;;;;;;13.74;100.00;98291.06;2072254;28;20281;-75
2021/08/02 01:59:04;;;;;;;31.08;28.45;;;;;;;13.74;100.00;98293.75;2087927;28;20684;-75
2021/08/02 02:00:12;;;;;;;33.83;30.83;;;;;;;13.72;100.00;98285.22;2087688;28;20672;-75
2021/08/02 02:01:22;;;;;;;32.53;29.83;;;;;;;13.71;100.00;98288.25;2088038;28;20226;-75
2021/08/02 02:02:25;;;;;;;32.97;30.38;;;;;;;13.71;100.00;98290.94;2087685;28;20287;-75
2021/08/02 02:03:28;;;;;;;32.33;29.83;;;;;;;13.70;100.00;98287.47;2088098;28;20226;-77
2021/08/02 02:04:37;;;;;;;33.67;30.95;;;;;;;13.70;100.00;98292.06;2088084;28;20268;-76
2021/08/02 02:05:40;;;;;;;32.63;29.83;;;;;;;13.69;100.00;98295.84;2087523;28;20736;-75
2021/08/02 02:06:45;;;;;;;32.42;29.83;;;;;;;13.70;100.00;98292.06;2088183;28;20700;-75
2021/08/02 02:07:52;;;;;;;33.13;30.52;;;;;;;13.70;100.00;98302.78;2080683;28;20662;-75
2021/08/02 02:09:05;;;;;;;33.00;30.38;;;;;;;13.70;100.00;98298.19;2081429;28;20305;-76
2021/08/02 02:10:11;;;;;;;30.25;27.75;;;;;;;13.74;100.00;98304.47;2079993;28;20306;-75
2021/08/02 02:11:12;;;;;;;32.22;29.52;;;;;;;13.72;100.00;98312.03;2079928;28;20314;-75
2021/08/02 02:12:23;;;;;;;32.17;29.58;;;;;;;13.72;100.00;98316.63;2080558;28;20222;-75
2021/08/02 02:13:30;;;;;;;30.88;28.27;;;;;;;13.72;100.00;98308.56;2087878;28;20222;-75
2021/08/02 02:14:34;;;;;;;31.08;28.58;;;;;;;13.75;100.00;98310.59;2080099;28;20219;-75
2021/08/02 02:15:37;;;;;;;29.70;27.10;;;;;;;13.78;100.00;98310.72;2087698;28;20245;-74
2021/08/02 02:16:43;;;;;;;30.80;28.07;;;;;;;13.75;100.00;98314.06;2088638;28;20229;-74
2021/08/02 02:17:44;;;;;;;31.88;28.98;;;;;;;13.76;100.00;98322.91;2088693;28;20289;-75
2021/08/02 02:18:49;;;;;;;31.77;28.73;;;;;;;13.77;100.00;98319.09;2088089;28;20568;-76
2021/08/02 02:19:52;;;;;;;30.77;28.13;;;;;;;13.79;100.00;98323.00;2087870;28;20264;-75
2021/08/02 02:20:54;;;;;;;30.50;27.70;;;;;;;13.80;100.00;98321.09;2088754;28;20273;-74
2021/08/02 02:21:58;;;;;;;31.00;28.23;;;;;;;13.75;100.00;98313.28;2087984;28;20652;-75
2021/08/02 02:23:03;;;;;;;31.77;28.98;;;;;;;13.75;100.00;98313.28;2080067;28;20738;-75
2021/08/02 02:24:06;;;;;;;31.02;27.92;;;;;;;13.74;100.00;98311.72;2087853;28;20561;-76
2021/08/02 02:25:12;;;;;;;31.48;28.75;;;;;;;13.77;100.00;98316.41;2079666;28;20234;-75
2021/08/02 02:26:15;;;;;;;32.78;29.83;;;;;;;13.76;100.00;98322.91;2080477;28;20284;-75
2021/08/02 02:27:20;;;;;;;32.40;29.52;;;;;;;13.75;100.00;98321.34;2087908;28;20242;-76
2021/08/02 02:28:28;;;;;;;33.25;30.35;;;;;;;13.75;100.00;98315.97;2080507;28;20273;-76
2021/08/02 02:29:41;;;;;;;31.25;28.35;;;;;;;13.73;100.00;98324.34;2078172;28;20235;-75
2021/08/02 02:30:42;;;;;;;32.00;28.90;;;;;;;13.73;100.00;98326.25;2079784;28;20305;-76
2021/08/02 02:31:47;;;;;;;36.50;30.13;;;;;;;13.75;100.00;98327.47;2080478;28;20223;-75
2021/08/02 02:32:48;;;;;;;33.25;30.25;;;;;;;13.75;100.00;98332.06;2080426;28;20313;-75
2021/08/02 02:33:53;;;;;;;35.03;31.73;;;;;;;13.76;100.00;98328.25;2085650;28;20319;-75
2021/08/02 02:34:55;;;;;;;34.95;31.40;;;;;;;13.76;100.00;98333.63;2079633;28;20269;-75
2021/08/02 02:35:58;;;;;;;33.17;30.08;;;;;;;13.76;100.00;98333.63;2087811;28;20239;-75
2021/08/02 02:37:02;;;;;;;32.95;29.85;;;;;;;13.77;100.00;98329.81;2087674;28;20233;-76
2021/08/02 02:38:08;;;;;;;35.20;31.95;;;;;;;13.81;100.00;98328.81;2073765;28;20244;-75
2021/08/02 02:39:12;;;;;;;33.90;30.58;;;;;;;13.79;100.00;98332.94;2071558;28;20232;-76
2021/08/02 02:40:17;;;;;;;33.97;31.05;;;;;;;13.82;100.00;98332.28;2079644;28;20226;-76
2021/08/02 02:41:20;;;;;;;34.95;31.63;;;;;;;13.83;100.00;98340.00;2079676;28;20229;-76
2021/08/02 02:42:27;;;;;;;34.00;30.90;;;;;;;13.81;100.00;98336.06;2085796;28;20223;-76
2021/08/02 02:43:30;;;;;;;33.67;30.45;;;;;;;13.79;100.00;98333.72;2080384;28;20314;-76
2021/08/02 02:44:36;;;;;;;34.92;31.42;;;;;;;13.82;100.00;98337.66;2080125;28;20235;-75
2021/08/02 02:45:41;;;;;;;35.67;32.28;;;;;;;13.83;100.00;98340.00;2079695;28;20717;-75
2021/08/02 02:46:42;;;;;;;34.28;31.02;;;;;;;13.83;100.00;98339.22;2087824;28;20226;-76
2021/08/02 02:47:45;;;;;;;36.55;33.15;;;;;;;13.83;100.00;98350.72;2087725;28;20719;-75
2021/08/02 02:48:47;;;;;;;36.20;32.65;;;;;;;13.82;100.00;98343.78;2087696;28;20301;-75
2021/08/02 02:49:49;;;;;;;39.08;33.47;;;;;;;13.85;100.00;98345.78;2087898;28;20319;-75
2021/08/02 02:50:52;;;;;;;36.67;32.75;;;;;;;13.91;100.00;98357.09;2087760;28;20806;-76
2021/08/02 02:51:53;;;;;;;36.33;32.67;;;;;;;13.86;100.00;98349.25;2087490;28;20580;-75
2021/08/02 02:52:55;;;;;;;36.17;32.45;;;;;;;13.88;100.00;98355.06;2088471;28;20298;-76
2021/08/02 02:53:56;;;;;;;37.70;33.88;;;;;;;13.86;100.00;98355.41;2087740;28;20637;-75
2021/08/02 02:55:00;;;;;;;36.97;33.47;;;;;;;13.90;100.00;98363.59;2087764;28;20236;-75
2021/08/02 02:56:06;;;;;;;36.97;33.38;;;;;;;13.89;100.00;98361.22;2088576;28;20218;-75
2021/08/02 02:57:08;;;;;;;38.40;34.40;;;;;;;13.89;100.00;98362.00;2088369;28;20218;-76
2021/08/02 02:58:09;;;;;;;38.55;34.60;;;;;;;13.92;100.00;98355.19;2089860;28;20560;-77
2021/08/02 02:59:11;;;;;;;39.00;34.95;;;;;;;13.91;100.00;98365.13;2089214;28;20310;-75
2021/08/02 03:00:12;;;;;;;41.50;37.15;;;;;;;13.98;100.00;98361.88;2089383;28;20234;-76
2021/08/02 03:01:15;;;;;;;40.92;36.65;;;;;;;13.95;100.00;98362.56;2089282;28;20234;-75
2021/08/02 03:02:18;;;;;;;39.92;35.88;;;;;;;13.95;100.00;98363.34;2089462;28;20678;-76
2021/08/02 03:03:22;;;;;;;39.15;35.15;;;;;;;13.96;100.00;98364.13;2089407;28;20296;-76
2021/08/02 03:04:29;;;;;;;39.70;35.78;;;;;;;14.02;100.00;98363.56;2081259;28;20276;-76
2021/08/02 03:05:33;;;;;;;41.13;36.35;;;;;;;14.03;100.00;98375.88;2081786;28;20662;-76
2021/08/02 03:06:34;;;;;;;42.15;37.70;;;;;;;14.01;100.00;98378.09;2081530;28;20361;-75
2021/08/02 03:07:37;;;;;;;39.08;35.13;;;;;;;14.01;100.00;98367.38;2081210;28;20227;-76
2021/08/02 03:08:40;;;;;;;40.85;36.92;;;;;;;13.99;100.00;98369.63;2080785;28;20313;-75
2021/08/02 03:09:42;;;;;;;40.20;36.35;;;;;;;13.99;100.00;98366.94;2081149;28;20226;-75
2021/08/02 03:10:50;;;;;;;42.10;38.28;;;;;;;13.98;100.00;98362.66;2081686;28;20230;-76
2021/08/02 03:11:52;;;;;;;47.08;38.70;;;;;;;13.97;100.00;98371.84;2089465;28;20689;-76
2021/08/02 03:12:53;;;;;;;41.42;37.38;;;;;;;13.98;100.00;98373.38;2083312;28;20226;-75
2021/08/02 03:13:55;;;;;;;41.15;37.17;;;;;;;14.00;100.00;98365.81;2081731;28;20310;-75
2021/08/02 03:14:56;;;;;;;41.42;37.08;;;;;;;13.99;100.00;98366.94;2081801;28;20223;-76
2021/08/02 03:15:57;;;;;;;40.20;36.03;;;;;;;14.05;100.00;98376.31;2081759;28;20695;-75
2021/08/02 03:16:58;;;;;;;47.33;37.80;;;;;;;14.01;100.00;98375.41;2081854;28;20547;-76
2021/08/02 03:18:00;;;;;;;42.03;37.80;;;;;;;14.09;100.00;98368.38;2081787;28;20226;-75
2021/08/02 03:19:01;;;;;;;39.97;36.05;;;;;;;14.07;100.00;98366.03;2081813;28;20246;-76
2021/08/02 03:20:03;;;;;;;42.83;38.42;;;;;;;14.09;100.00;98373.75;2080957;28;20252;-76
2021/08/02 03:21:04;;;;;;;40.22;36.22;;;;;;;14.06;100.00;98364.44;2081113;28;20223;-76
2021/08/02 03:22:13;;;;;;;41.05;37.15;;;;;;;14.05;100.00;98373.63;2080914;28;20227;-76
2021/08/02 03:23:18;;;;;;;40.00;35.85;;;;;;;14.06;100.00;98374.41;2087930;28;20756;-77
2021/08/02 03:24:27;;;;;;;40.90;36.55;;;;;;;14.09;100.00;98374.53;2089135;28;20234;-77
2021/08/02 03:25:30;;;;;;;41.40;37.50;;;;;;;14.07;100.00;98371.41;2089014;28;20276;-77
2021/08/02 03:26:38;;;;;;;39.90;36.00;;;;;;;14.03;100.00;98375.88;2090011;28;20326;-77
2021/08/02 03:27:42;;;;;;;39.58;35.80;;;;;;;14.08;100.00;98372.97;2089612;28;20210;-77
2021/08/02 03:28:46;;;;;;;40.75;36.95;;;;;;;14.06;100.00;98375.19;2089940;28;20229;-76
2021/08/02 03:29:49;;;;;;;40.47;36.63;;;;;;;14.06;100.00;98377.88;2089087;28;20281;-77
2021/08/02 03:30:51;;;;;;;40.50;36.28;;;;;;;14.06;100.00;98375.19;2089151;28;20230;-77
2021/08/02 03:31:56;;;;;;;39.97;36.15;;;;;;;14.06;100.00;98374.41;2088728;28;20233;-77
2021/08/02 03:33:00;;;;;;;39.22;35.47;;;;;;;14.05;100.00;98373.63;2081376;28;20227;-77
2021/08/02 03:34:05;;;;;;;41.08;35.08;;;;;;;14.06;100.00;98374.41;2089303;28;20226;-78
2021/08/02 03:35:09;;;;;;;41.67;37.15;;;;;;;14.04;100.00;98380.09;2089955;28;20349;-77
2021/08/02 03:36:13;;;;;;;42.53;35.72;;;;;;;14.05;100.00;98373.63;2088589;28;20250;-77
2021/08/02 03:37:15;;;;;;;40.10;35.83;;;;;;;14.05;100.00;98381.66;2088974;28;20588;-77
2021/08/02 03:38:18;;;;;;;41.03;36.72;;;;;;;14.08;100.00;98381.03;2089680;28;20230;-77
2021/08/02 03:39:21;;;;;;;41.33;37.00;;;;;;;14.07;100.00;98386.69;2089709;28;20257;-77
2021/08/02 03:40:23;;;;;;;39.97;36.05;;;;;;;14.05;100.00;98386.25;2088578;28;20238;-76
2021/08/02 03:41:24;;;;;;;42.03;37.63;;;;;;;14.05;100.00;98389.72;2080765;28;20223;-77
2021/08/02 03:42:27;;;;;;;39.73;35.73;;;;;;;14.04;100.00;98388.16;2089243;28;20238;-77
2021/08/02 03:43:28;;;;;;;41.42;36.92;;;;;;;14.05;100.00;98395.09;2088922;28;20462;-77
2021/08/02 03:44:31;;;;;;;41.77;37.63;;;;;;;14.05;100.00;98389.72;2080662;28;20756;-77
2021/08/02 03:45:32;;;;;;;43.00;37.72;;;;;;;14.06;100.00;98393.97;2089157;28;20222;-77
2021/08/02 03:46:34;;;;;;;44.07;36.87;;;;;;;14.08;100.00;98389.06;2089778;28;20226;-77
2021/08/02 03:47:35;;;;;;;45.95;36.80;;;;;;;14.09;100.00;98392.53;2089847;28;20223;-77
2021/08/02 03:48:37;;;;;;;42.33;37.80;;;;;;;14.09;100.00;98395.22;2089881;28;20233;-77
2021/08/02 03:49:37;;;;;;;42.17;37.72;;;;;;;14.08;100.00;98394.44;2089427;28;20229;-77
2021/08/02 03:50:39;;;;;;;44.77;38.97;;;;;;;14.07;100.00;98392.88;2088886;28;20257;-77
2021/08/02 03:51:44;;;;;;;42.15;37.63;;;;;;;14.09;100.00;98403.25;2089046;28;20728;-77
2021/08/02 03:52:47;;;;;;;44.63;38.97;;;;;;;14.15;100.00;98404.56;2089755;28;20226;-77
2021/08/02 03:53:49;;;;;;;43.47;38.35;;;;;;;14.14;100.00;98398.44;2089692;28;20221;-77
2021/08/02 03:54:50;;;;;;;46.35;39.03;;;;;;;14.12;100.00;98406.03;2088951;28;20228;-78
2021/08/02 03:55:51;;;;;;;50.25;41.08;;;;;;;14.13;100.00;98406.81;2089103;28;20218;-77
2021/08/02 03:56:53;;;;;;;42.03;37.40;;;;;;;14.13;100.00;98409.50;2089440;28;20310;-76
2021/08/02 03:57:55;;;;;;;42.50;37.90;;;;;;;14.11;100.00;98407.16;2088780;28;20234;-77
2021/08/02 03:58:57;;;;;;;44.03;39.33;;;;;;;14.12;100.00;98405.25;2089103;28;20309;-76
2021/08/02 03:59:57;;;;;;;43.45;38.75;;;;;;;14.16;100.00;98400.81;2089596;28;20227;-77
2021/08/02 04:00:59;;;;;;;43.27;38.60;;;;;;;14.12;100.00;98400.69;2089216;28;20299;-77
2021/08/02 04:02:00;;;;;;;44.50;39.50;;;;;;;14.14;100.00;98411.06;2088928;28;20234;-77
2021/08/02 04:03:03;;;;;;;45.20;40.23;;;;;;;14.12;100.00;98408.72;2089207;28;20306;-78
2021/08/02 04:04:04;;;;;;;44.03;39.35;;;;;;;14.22;100.00;98420.13;2080693;28;20223;-77
2021/08/02 04:05:06;;;;;;;44.20;39.60;;;;;;;14.18;100.00;98420.03;2088816;28;20226;-77
2021/08/02 04:06:07;;;;;;;49.80;40.88;;;;;;;14.14;100.00;98416.44;2089181;28;20226;-76
2021/08/02 04:07:09;;;;;;;51.25;40.03;;;;;;;14.13;100.00;98414.88;2089537;28;20310;-77
2021/08/02 04:08:10;;;;;;;49.15;41.30;;;;;;;14.12;100.00;98422.13;2089071;28;20310;-77
2021/08/02 04:09:12;;;;;;;46.30;39.53;;;;;;;14.10;100.00;98428.97;2088640;28;20234;-77
2021/08/02 04:10:13;;;;;;;46.78;39.28;;;;;;;14.10;100.00;98424.38;2088832;28;20233;-77
2021/08/02 04:11:15;;;;;;;50.42;41.75;;;;;;;14.11;100.00;98425.16;2088824;28;20586;-77
2021/08/02 04:12:16;;;;;;;46.08;40.78;;;;;;;14.09;100.00;98425.50;2088610;28;20753;-76
2021/08/02 04:13:19;;;;;;;44.33;38.27;;;;;;;14.09;100.00;98428.19;2088726;28;20597;-76
2021/08/02 04:14:20;;;;;;;44.72;39.95;;;;;;;14.10;100.00;98427.06;2089000;28;20785;-77
2021/08/02 04:15:22;;;;;;;46.20;39.87;;;;;;;14.10;100.00;98429.75;2089682;28;20634;-77
2021/08/02 04:16:23;;;;;;;46.65;40.10;;;;;;;14.13;100.00;98423.69;2088402;28;20222;-77
2021/08/02 04:17:25;;;;;;;44.72;39.85;;;;;;;14.12;100.00;98427.50;2088836;28;20227;-76
2021/08/02 04:18:26;;;;;;;42.33;37.90;;;;;;;14.10;100.00;98428.97;2089534;28;20585;-76
2021/08/02 04:19:28;;;;;;;47.38;39.70;;;;;;;14.11;100.00;98425.94;2088770;28;20340;-77
2021/08/02 04:20:28;;;;;;;44.25;39.08;;;;;;;14.11;100.00;98425.94;2088841;28;20222;-76
2021/08/02 04:21:30;;;;;;;44.50;39.67;;;;;;;14.10;100.00;98423.59;2088757;28;20744;-77
2021/08/02 04:22:30;;;;;;;45.20;39.45;;;;;;;14.13;100.00;98436.34;2088616;28;20238;-77
2021/08/02 04:23:32;;;;;;;48.73;38.90;;;;;;;14.18;100.00;98428.06;2088867;28;20219;-77
2021/08/02 04:24:33;;;;;;;42.58;37.95;;;;;;;14.19;100.00;98428.84;2089644;28;20719;-77
2021/08/02 04:25:34;;;;;;;45.47;38.97;;;;;;;14.19;100.00;98431.53;2089525;28;20594;-77
2021/08/02 04:26:35;;;;;;;48.58;41.00;;;;;;;14.19;100.00;98435.00;2089516;28;20222;-78
2021/08/02 04:27:37;;;;;;;46.87;40.43;;;;;;;14.17;100.00;98439.94;2089495;28;20219;-77
2021/08/02 04:28:39;;;;;;;44.05;39.22;;;;;;;14.18;100.00;98436.13;2089214;28;20223;-76
2021/08/02 04:29:40;;;;;;;43.63;37.85;;;;;;;14.20;100.00;98433.09;2088858;28;20230;-76
2021/08/02 04:30:41;;;;;;;42.22;37.83;;;;;;;14.27;100.00;98444.06;2080439;28;20238;-77
2021/08/02 04:31:43;;;;;;;43.53;36.83;;;;;;;14.25;100.00;98438.25;2088682;28;20226;-76
2021/08/02 04:32:44;;;;;;;41.05;36.80;;;;;;;14.26;100.00;98437.13;2080447;28;20231;-77
2021/08/02 04:33:46;;;;;;;40.03;35.95;;;;;;;14.27;100.00;98439.47;2088743;28;20708;-76
2021/08/02 04:34:46;;;;;;;40.20;35.90;;;;;;;14.38;100.00;98440.59;2088951;28;20249;-76
2021/08/02 04:35:48;;;;;;;40.03;36.07;;;;;;;14.33;100.00;98440.84;2080312;28;20226;-77
2021/08/02 04:36:49;;;;;;;41.42;35.58;;;;;;;14.33;100.00;98440.03;2088591;28;20218;-76
2021/08/02 04:37:50;;;;;;;39.80;34.33;;;;;;;14.35;100.00;98443.97;2089518;28;20222;-76
2021/08/02 04:38:51;;;;;;;39.83;35.40;;;;;;;14.36;100.00;98448.19;2089284;28;20301;-77
2021/08/02 04:39:54;;;;;;;37.23;33.60;;;;;;;14.40;100.00;98448.31;2089043;28;20237;-76
2021/08/02 04:40:55;;;;;;;38.35;34.33;;;;;;;14.41;100.00;98447.19;2088690;28;20254;-77
2021/08/02 04:41:57;;;;;;;37.63;33.83;;;;;;;14.38;100.00;98445.19;2080519;28;20223;-77
2021/08/02 04:42:58;;;;;;;41.13;34.53;;;;;;;14.38;100.00;98450.53;2080652;28;20678;-77
2021/08/02 04:44:01;;;;;;;37.27;33.20;;;;;;;14.35;100.00;98449.31;2080272;28;20543;-77
2021/08/02 04:45:01;;;;;;;37.15;32.55;;;;;;;14.36;100.00;98458.16;2088578;28;20291;-77
2021/08/02 04:46:03;;;;;;;37.37;33.30;;;;;;;14.36;100.00;98458.94;2088747;28;20223;-77
2021/08/02 04:47:04;;;;;;;36.05;32.40;;;;;;;14.37;100.00;98454.34;2088393;28;20246;-76
2021/08/02 04:48:06;;;;;;;37.10;32.90;;;;;;;14.38;100.00;98451.31;2088611;28;20705;-77
2021/08/02 04:49:07;;;;;;;36.67;32.75;;;;;;;14.38;100.00;98461.28;2088902;28;20249;-77
2021/08/02 04:50:09;;;;;;;35.20;31.60;;;;;;;14.38;100.00;98472.00;2089315;28;20223;-76
2021/08/02 04:51:10;;;;;;;36.63;32.75;;;;;;;14.39;100.00;98473.56;2089371;28;20367;-77